WATT

El Tari Airport

Kupang-Timor Island, Indonesia
TAF WATT 170500Z 1706/1806 30008KT 9999 SCT018 PROB40 TEMPO 1706/1710 5000 TSRA FEW016CB BKN016 PROB40 TEMPO 1802/1806 FEW016CB BKN016
Issued Valid From Valid To
Nov-17 @ 05:00 UTC
(4 hours ago)
Nov-17 @ 06:00 UTC
(3 hours ago)
Nov-18 @ 06:00 UTC
(in 21 hours)
Nov-17 @ 06:00 to Nov-18 @ 06:00
TAF WATT 170500Z 1706/1806 30008KT 9999 SCT018
Wind Visibility Clouds
300° at 8 knots 10,000+ meters
  • Scattered at 1,800' AGL
Temporary  (Probability 40%) Nov-17 @ 06:00 to Nov-17 @ 10:00
PROB40 TEMPO 1706/1710 5000 TSRA FEW016CB BKN016
Visibility Clouds Conditions
5,005 meters
  • Few at 1,600' AGL
  • Broken at 1,600' AGL
  • Thunderstorm
  • Rain
Temporary  (Probability 40%) Nov-18 @ 02:00 to Nov-18 @ 06:00
PROB40 TEMPO 1802/1806 FEW016CB BKN016
Clouds
  • Few at 1,600' AGL
  • Broken at 1,600' AGL
TAF WATT 170500Z 1706/1806 30008KT 9999 SCT018 PROB40 TEMPO 1706/1710 5000 TSRA FEW016CB BKN016 PROB40 TEMPO 1802/1806 FEW016CB BKN016
Issued Nov-17 @ 05:00 UTC
(4 hours ago)
Valid From Nov-17 @ 06:00 UTC
(3 hours ago)
Valid To Nov-18 @ 06:00 UTC
(in 21 hours)
Nov-17 @ 06:00 - Nov-18 @ 06:00
Wind Visibility
300° at 8 knots 10,000+ meters
Clouds
  • Scattered at 1,800' AGL
Probability 40% Temporary Nov-17 @ 06:00 - Nov-17 @ 10:00
Clouds
  • Few at 1,600' AGL
  • Broken at 1,600' AGL
Conditions
  • Thunderstorm
  • Rain
Probability 40% Temporary Nov-18 @ 02:00 - Nov-18 @ 06:00
Clouds
  • Few at 1,600' AGL
  • Broken at 1,600' AGL